createdAt,value
2018-02-11T00:00:56.974Z,81.25
2018-02-11T00:01:57.029Z,80.40
2018-02-11T00:02:57.082Z,80.30
2018-02-11T00:03:57.137Z,80.68
2018-02-11T00:04:57.192Z,80.96
2018-02-11T00:05:57.245Z,80.96
2018-02-11T00:06:57.298Z,80.96
2018-02-11T00:07:57.358Z,80.49
2018-02-11T00:08:57.409Z,80.40
2018-02-11T00:09:57.461Z,80.21
2018-02-11T00:10:57.518Z,80.49
2018-02-11T00:11:57.571Z,80.30
2018-02-11T00:12:57.630Z,79.93
2018-02-11T00:13:57.680Z,79.74
2018-02-11T00:14:57.735Z,80.11
2018-02-11T00:15:57.788Z,79.83
2018-02-11T00:16:57.843Z,80.68
2018-02-11T00:17:57.945Z,80.49
2018-02-11T00:18:57.950Z,80.40
2018-02-11T00:19:58.006Z,80.02
2018-02-11T00:20:58.059Z,79.64
2018-02-11T00:21:58.112Z,79.83
2018-02-11T00:22:58.167Z,79.64
2018-02-11T00:23:58.222Z,80.21
2018-02-11T00:24:58.275Z,80.40
2018-02-11T00:25:58.330Z,80.77
2018-02-11T00:26:58.384Z,80.49
2018-02-11T00:27:58.440Z,80.58
2018-02-11T00:28:58.495Z,80.40
2018-02-11T00:29:58.547Z,80.30
2018-02-11T00:30:58.602Z,80.11
2018-02-11T00:31:58.657Z,79.83
2018-02-11T00:32:58.711Z,79.93
2018-02-11T00:33:58.765Z,79.74
2018-02-11T00:34:58.819Z,79.17
2018-02-11T00:35:58.874Z,79.64
2018-02-11T00:36:58.928Z,79.93
2018-02-11T00:37:58.983Z,79.55
2018-02-11T00:38:59.036Z,79.74
2018-02-11T00:39:59.092Z,79.74
2018-02-11T00:40:59.147Z,79.55
2018-02-11T00:41:59.199Z,79.93
2018-02-11T00:42:59.255Z,79.64
2018-02-11T00:43:59.308Z,79.45
2018-02-11T00:44:59.363Z,78.98
2018-02-11T00:45:59.467Z,78.79
2018-02-11T00:46:59.472Z,78.79
2018-02-11T00:47:59.527Z,79.07
2018-02-11T00:48:59.636Z,79.26
2018-02-11T00:49:59.634Z,79.07
2018-02-11T00:50:59.689Z,78.98
2018-02-11T00:51:59.743Z,79.26
2018-02-11T00:52:59.797Z,78.88
2018-02-11T00:53:59.851Z,78.88
2018-02-11T00:54:59.906Z,79.17
2018-02-11T00:55:59.960Z,79.55
2018-02-11T00:57:00.024Z,79.64
2018-02-11T00:58:00.075Z,79.83
2018-02-11T00:59:00.125Z,80.30
2018-02-11T01:00:00.179Z,81.44
2018-02-11T01:01:00.235Z,81.72
2018-02-11T01:02:00.289Z,82.20
2018-02-11T01:03:00.342Z,82.57
2018-02-11T01:04:00.396Z,82.01
2018-02-11T01:05:00.452Z,82.10
2018-02-11T01:06:00.504Z,82.57
2018-02-11T01:07:00.560Z,82.01
2018-02-11T01:08:00.615Z,82.01
2018-02-11T01:09:00.670Z,82.29
2018-02-11T01:10:00.722Z,82.01
2018-02-11T01:11:00.776Z,82.86
2018-02-11T01:12:00.831Z,82.67
2018-02-11T01:13:00.886Z,82.76
2018-02-11T01:14:00.939Z,82.95
2018-02-11T01:15:00.995Z,82.76
2018-02-11T01:16:01.049Z,81.92
2018-02-11T01:17:01.104Z,81.44
2018-02-11T01:18:01.158Z,81.25
2018-02-11T01:19:01.213Z,81.06
2018-02-11T01:20:01.267Z,81.44
2018-02-11T01:21:01.323Z,81.34
2018-02-11T01:22:01.375Z,81.34
2018-02-11T01:23:01.429Z,81.15
2018-02-11T01:24:01.484Z,81.63
2018-02-11T01:25:01.540Z,81.92
2018-02-11T01:26:01.593Z,81.25
2018-02-11T01:27:01.648Z,79.93
2018-02-11T01:28:01.702Z,79.93
2018-02-11T01:29:01.757Z,79.83
2018-02-11T01:30:01.813Z,79.83
2018-02-11T01:31:01.866Z,79.45
2018-02-11T01:32:01.920Z,79.64
2018-02-11T01:33:01.974Z,78.98
2018-02-11T01:34:02.028Z,78.79
2018-02-11T01:35:02.083Z,78.98
2018-02-11T01:36:02.136Z,78.98
2018-02-11T01:37:02.191Z,78.98
2018-02-11T01:38:02.248Z,78.79
2018-02-11T01:39:02.299Z,78.79
2018-02-11T01:40:02.354Z,78.69
2018-02-11T01:41:02.408Z,78.79
2018-02-11T01:42:02.461Z,78.79
2018-02-11T01:43:02.522Z,78.98
2018-02-11T01:44:02.570Z,79.17
2018-02-11T01:45:02.625Z,78.88
2018-02-11T01:46:02.679Z,79.07
2018-02-11T01:47:02.733Z,79.17
2018-02-11T01:48:02.788Z,79.17
2018-02-11T01:49:02.843Z,78.69
2018-02-11T01:50:02.897Z,79.36
2018-02-11T01:51:02.951Z,79.36
2018-02-11T01:52:03.005Z,79.74
2018-02-11T01:53:03.059Z,79.55
2018-02-11T01:54:03.113Z,79.83
2018-02-11T01:55:03.168Z,80.21
2018-02-11T01:56:03.224Z,80.02
2018-02-11T01:57:03.279Z,80.49
2018-02-11T01:58:03.331Z,80.49
2018-02-11T01:59:03.385Z,80.40
2018-02-11T02:00:03.440Z,80.96
2018-02-11T02:01:03.496Z,81.44
2018-02-11T02:02:03.550Z,81.44
2018-02-11T02:03:03.602Z,81.82
2018-02-11T02:04:03.657Z,81.72
2018-02-11T02:05:03.712Z,81.15
2018-02-11T02:06:03.766Z,81.25
2018-02-11T02:07:03.821Z,81.06
2018-02-11T02:08:03.874Z,80.87
2018-02-11T02:09:03.928Z,80.96
2018-02-11T02:10:03.983Z,81.44
2018-02-11T02:11:04.038Z,81.06
2018-02-11T02:12:04.091Z,81.34
2018-02-11T02:13:04.152Z,82.10
2018-02-11T02:14:04.200Z,81.92
2018-02-11T02:15:04.254Z,82.76
2018-02-11T02:16:04.308Z,82.67
2018-02-11T02:17:04.363Z,83.14
2018-02-11T02:18:04.466Z,83.43
2018-02-11T02:19:04.471Z,83.24
2018-02-11T02:20:04.525Z,83.43
2018-02-11T02:21:04.580Z,83.24
2018-02-11T02:22:04.632Z,83.24
2018-02-11T02:23:04.687Z,82.86
2018-02-11T02:24:04.741Z,83.81
2018-02-11T02:25:04.796Z,83.81
2018-02-11T02:26:04.849Z,83.71
2018-02-11T02:27:04.916Z,84.52
2018-02-11T02:28:04.957Z,84.90
2018-02-11T02:29:05.011Z,85.28
2018-02-11T02:30:05.082Z,85.47
2018-02-11T02:31:05.118Z,85.85
2018-02-11T02:32:05.172Z,86.22
2018-02-11T02:33:05.228Z,86.89
2018-02-11T02:34:05.281Z,86.89
2018-02-11T02:35:05.338Z,86.79
2018-02-11T02:36:05.387Z,86.89
2018-02-11T02:37:05.442Z,87.55
2018-02-11T02:38:05.495Z,88.40
2018-02-11T02:39:05.548Z,88.31
2018-02-11T02:40:05.602Z,89.44
2018-02-11T02:41:05.658Z,89.73
2018-02-11T02:42:05.709Z,90.30
2018-02-11T02:43:05.763Z,90.77
2018-02-11T02:44:05.819Z,90.86
2018-02-11T02:45:05.871Z,90.30
2018-02-11T02:46:05.925Z,90.67
2018-02-11T02:47:06.230Z,90.39
2018-02-11T02:48:06.032Z,90.30
2018-02-11T02:49:06.088Z,90.11
2018-02-11T02:50:06.139Z,91.05
2018-02-11T02:51:06.193Z,90.11
2018-02-11T02:52:06.246Z,89.63
2018-02-11T02:53:06.300Z,89.54
2018-02-11T02:54:06.355Z,89.82
2018-02-11T02:55:06.409Z,90.30
2018-02-11T02:56:06.461Z,90.48
2018-02-11T02:57:06.516Z,89.92
2018-02-11T02:58:06.568Z,90.96
2018-02-11T02:59:06.622Z,90.67
2018-02-11T03:00:06.676Z,91.43
2018-02-11T03:01:06.729Z,91.34
2018-02-11T03:02:06.785Z,91.15
2018-02-11T03:03:06.837Z,91.15
2018-02-11T03:04:06.891Z,91.24
2018-02-11T03:05:06.946Z,91.05
2018-02-11T03:06:06.998Z,90.96
2018-02-11T03:07:07.052Z,90.67
2018-02-11T03:08:07.104Z,91.05
2018-02-11T03:09:07.158Z,90.67
2018-02-11T03:10:07.211Z,91.53
2018-02-11T03:11:07.266Z,91.34
2018-02-11T03:12:07.320Z,91.24
2018-02-11T03:13:07.374Z,91.53
2018-02-11T03:14:07.426Z,91.53
2018-02-11T03:15:07.479Z,91.34
2018-02-11T03:16:07.534Z,91.53
2018-02-11T03:17:07.589Z,91.62
2018-02-11T03:18:07.640Z,90.96
2018-02-11T03:19:07.694Z,90.77
2018-02-11T03:20:07.749Z,91.43
2018-02-11T03:21:07.801Z,91.34
2018-02-11T03:22:07.855Z,91.72
2018-02-11T03:23:07.912Z,91.34
2018-02-11T03:24:07.961Z,91.62
2018-02-11T03:25:08.017Z,91.53
2018-02-11T03:26:08.119Z,91.15
2018-02-11T03:27:08.124Z,91.24
2018-02-11T03:28:08.176Z,91.72
2018-02-11T03:29:08.230Z,91.91
2018-02-11T03:30:08.284Z,92.29
2018-02-11T03:31:08.338Z,93.04
2018-02-11T03:32:08.391Z,92.94
2018-02-11T03:33:08.445Z,92.94
2018-02-11T03:34:08.497Z,93.04
2018-02-11T03:35:08.552Z,92.38
2018-02-11T03:36:08.606Z,93.13
2018-02-11T03:37:08.660Z,92.85
2018-02-11T03:38:08.712Z,92.85
2018-02-11T03:39:08.767Z,93.04
2018-02-11T03:40:08.821Z,92.85
2018-02-11T03:41:08.875Z,93.23
2018-02-11T03:42:08.928Z,92.85
2018-02-11T03:43:08.981Z,93.23
2018-02-11T03:44:09.035Z,93.13
2018-02-11T03:45:09.090Z,92.47
2018-02-11T03:46:09.142Z,92.29
2018-02-11T03:47:09.196Z,91.81
2018-02-11T03:48:09.451Z,91.34
2018-02-11T03:49:09.305Z,91.43
2018-02-11T03:50:09.361Z,91.15
2018-02-11T03:51:09.412Z,91.72
2018-02-11T03:52:09.466Z,92.19
2018-02-11T03:53:09.521Z,92.29
2018-02-11T03:54:09.573Z,91.91
2018-02-11T03:55:09.627Z,92.00
2018-02-11T03:56:09.680Z,91.53
2018-02-11T03:57:09.736Z,91.43
2018-02-11T03:58:09.789Z,91.24
2018-02-11T03:59:09.842Z,92.00
2018-02-11T04:00:09.896Z,91.62
2018-02-11T04:01:09.951Z,91.72
2018-02-11T04:02:10.003Z,91.34
2018-02-11T04:03:10.058Z,91.34
2018-02-11T04:04:10.112Z,91.34
2018-02-11T04:05:10.167Z,91.53
2018-02-11T04:06:10.220Z,91.34
2018-02-11T04:07:10.274Z,91.53
2018-02-11T04:08:10.327Z,91.34
2018-02-11T04:09:10.385Z,91.43
2018-02-11T04:10:12.741Z,91.81
2018-02-11T04:11:10.490Z,91.81
2018-02-11T04:12:10.544Z,92.19
2018-02-11T04:13:10.597Z,91.91
2018-02-11T04:14:10.651Z,91.72
2018-02-11T04:15:10.705Z,92.10
2018-02-11T04:16:10.810Z,92.29
2018-02-11T04:17:10.812Z,92.19
2018-02-11T04:18:10.866Z,92.10
2018-02-11T04:19:10.924Z,92.00
2018-02-11T04:20:10.974Z,91.91
2018-02-11T04:21:11.028Z,92.38
2018-02-11T04:22:11.082Z,92.47
2018-02-11T04:23:11.137Z,92.66
2018-02-11T04:24:11.190Z,92.38
2018-02-11T04:25:11.246Z,92.47
2018-02-11T04:26:11.298Z,91.72
2018-02-11T04:27:11.352Z,91.72
2018-02-11T04:28:11.410Z,92.10
2018-02-11T04:29:11.460Z,91.91
2018-02-11T04:30:11.513Z,91.91
2018-02-11T04:31:11.570Z,91.72
2018-02-11T04:32:11.622Z,91.72
2018-02-11T04:33:11.676Z,91.72
2018-02-11T04:34:11.730Z,91.53
2018-02-11T04:35:11.784Z,91.72
2018-02-11T04:36:11.838Z,91.62
2018-02-11T04:37:11.892Z,92.00
2018-02-11T04:38:11.946Z,92.47
2018-02-11T04:39:12.006Z,92.47
2018-02-11T04:40:12.055Z,92.29
2018-02-11T04:41:12.108Z,93.04
2018-02-11T04:42:12.160Z,93.13
2018-02-11T04:43:12.216Z,93.04
2018-02-11T04:44:12.720Z,92.76
2018-02-11T04:45:12.323Z,92.94
2018-02-11T04:46:12.377Z,93.13
2018-02-11T04:47:12.430Z,93.42
2018-02-11T04:48:12.485Z,93.61
2018-02-11T04:49:12.540Z,93.61
2018-02-11T04:50:12.642Z,93.89
2018-02-11T04:51:12.647Z,94.46
2018-02-11T04:52:12.703Z,93.61
2018-02-11T04:53:12.755Z,93.61
2018-02-11T04:54:12.807Z,94.27
2018-02-11T04:55:12.871Z,94.37
2018-02-11T04:56:12.916Z,94.18
2018-02-11T04:57:12.970Z,93.89
2018-02-11T04:58:13.023Z,94.18
2018-02-11T04:59:13.077Z,94.74
2018-02-11T05:00:13.132Z,94.46
2018-02-11T05:01:13.235Z,94.65
2018-02-11T05:02:13.238Z,95.03
2018-02-11T05:03:13.298Z,95.12
2018-02-11T05:04:13.346Z,95.21
2018-02-11T05:05:13.400Z,95.12
2018-02-11T05:06:13.455Z,95.12
2018-02-11T05:07:13.507Z,95.03
2018-02-11T05:08:13.564Z,95.40
2018-02-11T05:09:13.616Z,95.40
2018-02-11T05:10:13.669Z,96.16
2018-02-11T05:11:13.722Z,96.16
2018-02-11T05:12:13.782Z,95.59
2018-02-11T05:13:13.832Z,95.78
2018-02-11T05:14:13.884Z,95.31
2018-02-11T05:15:13.939Z,95.31
2018-02-11T05:16:13.992Z,95.40
2018-02-11T05:17:14.047Z,95.97
2018-02-11T05:18:14.099Z,95.59
2018-02-11T05:19:14.155Z,95.40
2018-02-11T05:20:14.207Z,95.69
2018-02-11T05:21:14.262Z,95.31
2018-02-11T05:22:14.315Z,95.12
2018-02-11T05:23:14.369Z,95.21
2018-02-11T05:24:14.423Z,95.59
2018-02-11T05:25:14.477Z,95.50
2018-02-11T05:26:14.531Z,95.40
2018-02-11T05:27:14.584Z,95.40
2018-02-11T05:28:14.638Z,96.07
2018-02-11T05:29:14.693Z,96.45
2018-02-11T05:30:14.746Z,96.16
2018-02-11T05:31:14.800Z,95.69
2018-02-11T05:32:14.853Z,94.93
2018-02-11T05:33:14.913Z,94.27
2018-02-11T05:34:14.960Z,94.65
2018-02-11T05:35:15.016Z,95.40
2018-02-11T05:36:15.069Z,95.21
2018-02-11T05:37:15.124Z,95.12
2018-02-11T05:38:15.178Z,94.93
2018-02-11T05:39:15.231Z,94.93
2018-02-11T05:40:15.284Z,95.21
2018-02-11T05:41:15.338Z,95.21
2018-02-11T05:42:15.393Z,95.31
2018-02-11T05:43:15.445Z,95.12
2018-02-11T05:44:15.499Z,95.59
2018-02-11T05:45:15.553Z,95.88
2018-02-11T05:46:15.607Z,95.59
2018-02-11T05:47:15.710Z,95.50
2018-02-11T05:48:15.714Z,95.69
2018-02-11T05:49:15.769Z,95.31
2018-02-11T05:50:15.823Z,95.03
2018-02-11T05:51:15.876Z,95.40
2018-02-11T05:52:16.180Z,95.88
2018-02-11T05:53:15.983Z,95.03
2018-02-11T05:54:16.037Z,95.21
2018-02-11T05:55:16.091Z,95.50
2018-02-11T05:56:16.146Z,95.31
2018-02-11T05:57:16.200Z,95.78
2018-02-11T05:58:16.252Z,96.16
2018-02-11T05:59:16.308Z,95.59
2018-02-11T06:00:16.362Z,95.12
2018-02-11T06:01:16.415Z,95.88
2018-02-11T06:02:16.468Z,95.88
2018-02-11T06:03:16.521Z,96.07
2018-02-11T06:04:16.576Z,96.35
2018-02-11T06:05:16.629Z,96.35
2018-02-11T06:06:16.683Z,96.16
2018-02-11T06:07:16.738Z,96.45
2018-02-11T06:08:16.791Z,97.11
2018-02-11T06:09:16.845Z,97.11
2018-02-11T06:10:16.899Z,97.02
2018-02-11T06:11:16.954Z,96.92
2018-02-11T06:12:17.006Z,97.02
2018-02-11T06:13:17.063Z,97.11
2018-02-11T06:14:17.114Z,97.02
2018-02-11T06:15:17.168Z,97.20
2018-02-11T06:16:17.223Z,96.73
2018-02-11T06:17:17.277Z,97.20
2018-02-11T06:18:17.330Z,97.20
2018-02-11T06:19:17.383Z,97.68
2018-02-11T06:20:17.437Z,97.02
2018-02-11T06:21:17.490Z,97.20
2018-02-11T06:22:17.547Z,96.73
2018-02-11T06:23:17.600Z,96.45
2018-02-11T06:24:17.654Z,97.02
2018-02-11T06:25:17.708Z,96.73
2018-02-11T06:26:17.759Z,96.26
2018-02-11T06:27:17.815Z,95.78
2018-02-11T06:28:17.870Z,95.40
2018-02-11T06:29:17.922Z,95.97
2018-02-11T06:30:17.976Z,96.45
2018-02-11T06:31:18.030Z,97.20
2018-02-11T06:32:18.084Z,96.16
2018-02-11T06:33:18.138Z,96.35
2018-02-11T06:34:18.191Z,96.54
2018-02-11T06:35:18.246Z,97.11
2018-02-11T06:36:18.299Z,96.92
2018-02-11T06:37:18.353Z,97.02
2018-02-11T06:38:18.407Z,97.02
2018-02-11T06:39:18.462Z,96.35
2018-02-11T06:40:18.515Z,96.16
2018-02-11T06:41:18.570Z,95.59
2018-02-11T06:42:18.623Z,95.59
2018-02-11T06:43:18.677Z,95.69
2018-02-11T06:44:18.731Z,94.93
2018-02-11T06:45:18.785Z,95.31
2018-02-11T06:46:18.840Z,95.78
2018-02-11T06:47:18.893Z,95.97
2018-02-11T06:48:18.950Z,96.45
2018-02-11T06:49:19.003Z,96.45
2018-02-11T06:50:19.106Z,96.26
2018-02-11T06:51:19.111Z,95.40
2018-02-11T06:52:19.164Z,95.69
2018-02-11T06:53:19.224Z,95.40
2018-02-11T06:54:19.273Z,95.50
2018-02-11T06:55:19.328Z,96.54
2018-02-11T06:56:19.382Z,97.02
2018-02-11T06:57:19.436Z,96.45
2018-02-11T06:58:19.490Z,96.26
2018-02-11T06:59:19.544Z,96.92
2018-02-11T07:00:19.599Z,97.58
2018-02-11T07:01:19.903Z,97.11
2018-02-11T07:02:19.708Z,96.73
2018-02-11T07:03:19.762Z,96.64
2018-02-11T07:04:19.816Z,96.83
2018-02-11T07:05:19.873Z,96.64
2018-02-11T07:06:19.924Z,96.35
2018-02-11T07:07:19.979Z,96.64
2018-02-11T07:08:20.035Z,96.64
2018-02-11T07:09:20.088Z,95.40
2018-02-11T07:10:20.142Z,94.70
2018-02-11T07:11:20.197Z,94.32
2018-02-11T07:12:20.251Z,93.94
2018-02-11T07:13:20.306Z,94.32
2018-02-11T07:14:20.360Z,94.70
2018-02-11T07:15:20.414Z,93.65
2018-02-11T07:16:20.469Z,92.33
2018-02-11T07:17:20.823Z,92.80
2018-02-11T07:18:20.578Z,92.52
2018-02-11T07:19:20.631Z,92.61
2018-02-11T07:20:20.686Z,92.99
2018-02-11T07:21:20.740Z,92.80
2018-02-11T07:22:20.794Z,92.52
2018-02-11T07:23:21.101Z,91.95
2018-02-11T07:24:20.903Z,92.33
2018-02-11T07:25:20.959Z,92.61
2018-02-11T07:26:21.012Z,91.38
2018-02-11T07:27:21.070Z,92.14
2018-02-11T07:28:21.121Z,92.80
2018-02-11T07:29:21.175Z,92.33
2018-02-11T07:30:21.229Z,91.86
2018-02-11T07:31:21.283Z,92.71
2018-02-11T07:32:21.339Z,92.71
2018-02-11T07:33:21.393Z,92.80
2018-02-11T07:34:21.447Z,92.80
2018-02-11T07:35:21.501Z,93.27
2018-02-11T07:36:21.555Z,92.14
2018-02-11T07:37:21.609Z,92.33
2018-02-11T07:38:21.664Z,92.43
2018-02-11T07:39:21.717Z,93.08
2018-02-11T07:40:21.773Z,92.33
2018-02-11T07:41:21.827Z,91.95
2018-02-11T07:42:21.881Z,91.95
2018-02-11T07:43:21.933Z,91.00
2018-02-11T07:44:21.989Z,91.95
2018-02-11T07:45:22.042Z,91.29
2018-02-11T07:46:22.096Z,91.29
2018-02-11T07:47:22.172Z,91.86
2018-02-11T07:48:22.204Z,92.05
2018-02-11T07:49:22.259Z,92.33
2018-02-11T07:50:22.313Z,92.24
2018-02-11T07:51:22.368Z,92.05
2018-02-11T07:52:22.421Z,92.05
2018-02-11T07:53:22.475Z,92.90
2018-02-11T07:54:22.530Z,93.65
2018-02-11T07:55:22.583Z,94.04
2018-02-11T07:56:22.637Z,93.56
2018-02-11T07:57:22.691Z,93.94
2018-02-11T07:58:22.746Z,93.75
2018-02-11T07:59:22.800Z,93.94
2018-02-11T08:00:22.861Z,93.46
2018-02-11T08:01:22.908Z,94.04
2018-02-11T08:02:22.964Z,93.65
2018-02-11T08:03:23.017Z,93.75
2018-02-11T08:04:23.071Z,93.27
2018-02-11T08:05:23.126Z,92.61
2018-02-11T08:06:23.178Z,93.56
2018-02-11T08:07:23.240Z,93.08
2018-02-11T08:08:23.286Z,93.08
2018-02-11T08:09:23.342Z,92.99
2018-02-11T08:10:23.394Z,92.24
2018-02-11T08:11:23.449Z,91.38
2018-02-11T08:12:23.505Z,91.29
2018-02-11T08:13:23.559Z,91.67
2018-02-11T08:14:23.611Z,91.76
2018-02-11T08:15:23.666Z,91.67
2018-02-11T08:16:23.721Z,91.67
2018-02-11T08:17:23.774Z,92.24
2018-02-11T08:18:23.828Z,92.14
2018-02-11T08:19:23.883Z,92.24
2018-02-11T08:20:23.938Z,92.24
2018-02-11T08:21:23.990Z,92.05
2018-02-11T08:22:24.046Z,92.24
2018-02-11T08:23:24.410Z,91.95
2018-02-11T08:24:24.156Z,92.71
2018-02-11T08:25:24.208Z,92.71
2018-02-11T08:26:24.262Z,93.18
2018-02-11T08:27:24.354Z,93.18
2018-02-11T08:28:24.374Z,93.75
2018-02-11T08:29:24.431Z,93.56
2018-02-11T08:30:24.480Z,94.04
2018-02-11T08:31:24.534Z,93.37
2018-02-11T08:32:24.589Z,92.80
2018-02-11T08:33:24.643Z,93.46
2018-02-11T08:34:24.696Z,93.37
2018-02-11T08:35:24.753Z,93.46
2018-02-11T08:36:24.856Z,93.08
2018-02-11T08:37:24.860Z,92.99
2018-02-11T08:38:24.915Z,92.14
2018-02-11T08:39:24.970Z,92.33
2018-02-11T08:40:25.024Z,92.43
2018-02-11T08:41:25.078Z,92.24
2018-02-11T08:42:25.130Z,92.33
2018-02-11T08:43:25.186Z,92.47
2018-02-11T08:44:25.242Z,92.99
2018-02-11T08:45:25.296Z,92.52
2018-02-11T08:46:25.349Z,93.18
2018-02-11T08:47:25.653Z,92.90
2018-02-11T08:48:25.457Z,93.46
2018-02-11T08:49:25.512Z,92.52
2018-02-11T08:50:25.565Z,92.33
2018-02-11T08:51:25.620Z,93.08
2018-02-11T08:52:25.674Z,92.99
2018-02-11T08:53:25.728Z,92.43
2018-02-11T08:54:25.783Z,92.90
2018-02-11T08:55:25.837Z,93.18
2018-02-11T08:56:25.893Z,93.27
2018-02-11T08:57:25.946Z,92.71
2018-02-11T08:58:26.000Z,92.66
2018-02-11T08:59:26.056Z,93.37
2018-02-11T09:00:26.110Z,92.61
2018-02-11T09:01:26.165Z,93.04
2018-02-11T09:02:26.217Z,92.99
2018-02-11T09:03:26.274Z,92.76
2018-02-11T09:04:26.328Z,93.23
2018-02-11T09:05:26.384Z,93.32
2018-02-11T09:06:26.438Z,92.94
2018-02-11T09:07:26.493Z,92.94
2018-02-11T09:08:26.546Z,91.71
2018-02-11T09:09:26.602Z,92.09
2018-02-11T09:10:26.657Z,92.19
2018-02-11T09:11:26.712Z,93.13
2018-02-11T09:12:26.767Z,93.13
2018-02-11T09:13:26.823Z,92.85
2018-02-11T09:14:26.877Z,92.66
2018-02-11T09:15:26.934Z,92.57
2018-02-11T09:16:26.986Z,92.76
2018-02-11T09:17:27.043Z,92.66
2018-02-11T09:18:27.097Z,92.57
2018-02-11T09:19:27.152Z,92.76
2018-02-11T09:20:27.208Z,92.76
2018-02-11T09:21:27.264Z,92.76
2018-02-11T09:22:27.318Z,92.76
2018-02-11T09:23:27.374Z,92.94
2018-02-11T09:24:27.434Z,92.94
2018-02-11T09:25:28.086Z,92.85
2018-02-11T09:26:27.537Z,92.76
2018-02-11T09:27:27.593Z,93.23
2018-02-11T09:28:27.649Z,93.13
2018-02-11T09:29:27.703Z,93.51
2018-02-11T09:30:27.758Z,94.08
2018-02-11T09:31:27.814Z,93.99
2018-02-11T09:32:27.869Z,93.32
2018-02-11T09:33:27.925Z,93.70
2018-02-11T09:34:27.979Z,93.89
2018-02-11T09:35:28.034Z,93.51
2018-02-11T09:36:28.089Z,93.51
2018-02-11T09:37:28.144Z,93.61
2018-02-11T09:38:28.199Z,93.80
2018-02-11T09:39:28.262Z,95.12
2018-02-11T09:40:28.343Z,95.03
2018-02-11T09:41:28.986Z,93.99
2018-02-11T09:42:28.420Z,94.08
2018-02-11T09:43:28.475Z,94.37
2018-02-11T09:44:28.533Z,93.89
2018-02-11T09:45:28.585Z,93.61
2018-02-11T09:46:28.641Z,93.89
2018-02-11T09:47:28.695Z,93.42
2018-02-11T09:48:28.751Z,93.32
2018-02-11T09:49:28.807Z,93.89
2018-02-11T09:50:28.862Z,93.80
2018-02-11T09:51:28.918Z,94.46
2018-02-11T09:52:28.972Z,94.56
2018-02-11T09:53:29.028Z,94.37
2018-02-11T09:54:29.084Z,94.08
2018-02-11T09:55:29.138Z,94.65
2018-02-11T09:56:29.195Z,93.99
2018-02-11T09:57:29.250Z,94.37
2018-02-11T09:58:29.305Z,94.65
2018-02-11T09:59:29.361Z,94.93
2018-02-11T10:00:29.416Z,95.12
2018-02-11T10:01:29.472Z,94.74
2018-02-11T10:02:29.527Z,94.46
2018-02-11T10:03:29.582Z,94.08
2018-02-11T10:04:29.639Z,92.90
2018-02-11T10:05:29.694Z,92.61
2018-02-11T10:06:29.749Z,92.61
2018-02-11T10:07:29.806Z,92.23
2018-02-11T10:08:29.863Z,92.90
2018-02-11T10:09:29.918Z,92.42
2018-02-11T10:10:29.972Z,92.80
2018-02-11T10:11:30.029Z,92.04
2018-02-11T10:12:30.085Z,92.80
2018-02-11T10:13:30.143Z,93.94
2018-02-11T10:14:30.197Z,93.27
2018-02-11T10:15:30.818Z,93.94
2018-02-11T10:16:30.311Z,93.94
2018-02-11T10:17:30.372Z,93.75
2018-02-11T10:18:30.422Z,94.13
2018-02-11T10:19:30.477Z,93.75
2018-02-11T10:20:30.536Z,94.04
2018-02-11T10:21:30.597Z,93.84
2018-02-11T10:22:30.646Z,93.18
2018-02-11T10:23:30.704Z,93.84
2018-02-11T10:24:31.011Z,93.94
2018-02-11T10:25:30.819Z,94.42
2018-02-11T10:26:30.872Z,93.56
2018-02-11T10:27:30.928Z,93.18
2018-02-11T10:28:30.986Z,92.99
2018-02-11T10:29:31.043Z,92.52
2018-02-11T10:30:31.109Z,92.61
2018-02-11T10:31:31.156Z,92.23
2018-02-11T10:32:31.212Z,91.76
2018-02-11T10:33:31.276Z,92.33
2018-02-11T10:34:31.326Z,92.99
2018-02-11T10:35:31.382Z,93.18
2018-02-11T10:36:31.439Z,92.33
2018-02-11T10:37:31.498Z,91.57
2018-02-11T10:38:31.553Z,91.95
2018-02-11T10:39:31.610Z,92.99
2018-02-11T10:40:31.667Z,92.80
2018-02-11T10:41:31.974Z,93.27
2018-02-11T10:42:32.354Z,92.90
2018-02-11T10:43:31.837Z,92.99
2018-02-11T10:44:32.452Z,92.99
2018-02-11T10:45:31.951Z,93.27
2018-02-11T10:46:32.008Z,92.90
2018-02-11T10:47:32.065Z,92.80
2018-02-11T10:48:32.122Z,93.37
2018-02-11T10:49:32.179Z,93.27
2018-02-11T10:50:32.234Z,92.42
2018-02-11T10:51:32.292Z,92.52
2018-02-11T10:52:32.348Z,93.08
2018-02-11T10:53:32.405Z,92.61
2018-02-11T10:54:32.462Z,92.52
2018-02-11T10:55:32.517Z,92.61
2018-02-11T10:56:32.575Z,93.08
2018-02-11T10:57:32.632Z,93.08
2018-02-11T10:58:32.687Z,93.84
2018-02-11T10:59:32.744Z,93.18
2018-02-11T11:00:32.800Z,92.61
2018-02-11T11:01:32.858Z,92.14
2018-02-11T11:02:32.914Z,92.90
2018-02-11T11:03:32.969Z,93.08
2018-02-11T11:04:33.027Z,92.71
2018-02-11T11:05:33.084Z,93.18
2018-02-11T11:06:33.143Z,92.33
2018-02-11T11:07:33.229Z,92.52
2018-02-11T11:08:33.251Z,92.42
2018-02-11T11:09:33.309Z,92.71
2018-02-11T11:10:33.364Z,92.61
2018-02-11T11:11:33.424Z,92.52
2018-02-11T11:12:33.479Z,92.80
2018-02-11T11:13:33.535Z,91.76
2018-02-11T11:14:33.590Z,92.14
2018-02-11T11:15:33.647Z,92.80
2018-02-11T11:16:33.703Z,93.46
2018-02-11T11:17:33.760Z,93.18
2018-02-11T11:18:33.815Z,91.95
2018-02-11T11:19:33.876Z,91.95
2018-02-11T11:20:33.929Z,91.19
2018-02-11T11:21:34.036Z,91.57
2018-02-11T11:22:34.470Z,91.47
2018-02-11T11:23:34.099Z,91.38
2018-02-11T11:24:34.156Z,91.28
2018-02-11T11:25:34.213Z,91.09
2018-02-11T11:26:34.269Z,91.76
2018-02-11T11:27:34.325Z,91.38
2018-02-11T11:28:34.383Z,91.57
2018-02-11T11:29:34.441Z,91.19
2018-02-11T11:30:34.495Z,91.38
2018-02-11T11:31:34.552Z,92.33
2018-02-11T11:32:34.609Z,92.14
2018-02-11T11:33:34.667Z,92.61
2018-02-11T11:34:34.721Z,92.33
2018-02-11T11:35:34.778Z,91.66
2018-02-11T11:36:34.834Z,92.14
2018-02-11T11:37:34.895Z,91.66
2018-02-11T11:38:34.948Z,91.38
2018-02-11T11:39:35.004Z,91.28
2018-02-11T11:40:35.060Z,91.33
2018-02-11T11:41:35.118Z,91.61
2018-02-11T11:42:35.173Z,91.42
2018-02-11T11:43:35.232Z,91.52
2018-02-11T11:44:35.287Z,90.95
2018-02-11T11:45:35.343Z,91.19
2018-02-11T11:46:35.400Z,90.91
2018-02-11T11:47:35.456Z,90.29
2018-02-11T11:48:35.514Z,91.14
2018-02-11T11:49:35.571Z,91.24
2018-02-11T11:50:35.631Z,91.71
2018-02-11T11:51:35.683Z,91.61
2018-02-11T11:52:36.311Z,91.52
2018-02-11T11:53:35.797Z,90.95
2018-02-11T11:54:35.858Z,90.86
2018-02-11T11:55:35.910Z,90.86
2018-02-11T11:56:35.968Z,90.10
2018-02-11T11:57:36.025Z,90.38
2018-02-11T11:58:36.081Z,89.81
2018-02-11T11:59:36.139Z,90.86
2018-02-11T12:00:36.196Z,91.05
2018-02-11T12:01:36.258Z,91.14
2018-02-11T12:02:36.310Z,90.95
2018-02-11T12:03:36.367Z,91.14
2018-02-11T12:04:36.425Z,90.57
2018-02-11T12:05:36.483Z,90.19
2018-02-11T12:06:36.537Z,90.95
2018-02-11T12:07:36.595Z,90.86
2018-02-11T12:08:36.653Z,91.14
2018-02-11T12:09:36.713Z,90.95
2018-02-11T12:10:36.767Z,91.14
2018-02-11T12:11:36.824Z,91.05
2018-02-11T12:12:36.882Z,91.14
2018-02-11T12:13:36.939Z,91.42
2018-02-11T12:14:36.997Z,91.05
2018-02-11T12:15:37.053Z,90.29
2018-02-11T12:16:37.110Z,90.86
2018-02-11T12:17:37.171Z,91.24
2018-02-11T12:18:37.226Z,91.24
2018-02-11T12:19:37.282Z,91.05
2018-02-11T12:20:37.342Z,91.90
2018-02-11T12:21:37.398Z,91.42
2018-02-11T12:22:37.453Z,91.05
2018-02-11T12:23:37.511Z,91.52
2018-02-11T12:24:37.572Z,91.52
2018-02-11T12:25:37.626Z,91.90
2018-02-11T12:26:37.681Z,91.14
2018-02-11T12:27:37.739Z,91.90
2018-02-11T12:28:37.796Z,91.99
2018-02-11T12:29:37.853Z,92.18
2018-02-11T12:30:37.910Z,91.99
2018-02-11T12:31:37.966Z,92.18
2018-02-11T12:32:38.024Z,91.99
2018-02-11T12:33:38.079Z,92.66
2018-02-11T12:34:38.136Z,93.32
2018-02-11T12:35:38.194Z,93.80
2018-02-11T12:36:38.250Z,93.51
2018-02-11T12:37:38.308Z,93.80
2018-02-11T12:38:38.364Z,93.51
2018-02-11T12:39:38.422Z,93.04
2018-02-11T12:40:38.477Z,93.23
2018-02-11T12:41:38.532Z,93.99
2018-02-11T12:42:38.589Z,93.51
2018-02-11T12:43:38.646Z,93.41
2018-02-11T12:44:38.703Z,93.23
2018-02-11T12:45:38.760Z,93.80
2018-02-11T12:46:38.814Z,93.99
2018-02-11T12:47:38.876Z,94.18
2018-02-11T12:48:38.929Z,93.61
2018-02-11T12:49:38.985Z,93.61
2018-02-11T12:50:39.041Z,93.99
2018-02-11T12:51:39.098Z,93.80
2018-02-11T12:52:39.154Z,94.84
2018-02-11T12:53:39.211Z,93.99